Time;durP1;ratioP1;P1;durP2;ratioP2;P2;SDS_P1;SDS_P2;PMS_P1;PMS_P2;Temp;Humidity;BMP_temperature;BMP_pressure;BME280_temperature;BME280_humidity;BME280_pressure;Samples;Min_cycle;Max_cycle;Signal;HPM_P1;HPM_P2
2021/09/14 00:03:43;;;;;;;8.77;6.57;;;;;;;14.73;100.00;94834.03;10530505;28;20455;-71
2021/09/14 00:08:44;;;;;;;8.93;6.20;;;;;;;14.82;100.00;94835.75;10530981;28;20031;-71
2021/09/14 00:13:46;;;;;;;18.48;6.15;;;;;;;14.84;100.00;94838.97;10530542;28;20127;-71
2021/09/14 00:18:46;;;;;;;9.88;6.22;;;;;;;14.74;100.00;94833.72;10528336;28;20402;-71
2021/09/14 00:23:47;;;;;;;11.70;5.35;;;;;;;14.62;100.00;94836.91;10529132;28;20030;-71
2021/09/14 00:28:47;;;;;;;8.70;6.63;;;;;;;14.65;100.00;94830.91;10529517;28;20092;-71
2021/09/14 00:33:48;;;;;;;7.93;6.13;;;;;;;14.69;100.00;94833.81;10528986;28;20364;-71
2021/09/14 00:38:48;;;;;;;8.53;6.37;;;;;;;14.60;100.00;94840.97;10530085;28;20118;-71
2021/09/14 00:44:00;;;;;;;10.83;6.33;;;;;;;14.56;100.00;94839.97;10530058;28;20089;-71
2021/09/14 00:49:01;;;;;;;11.13;6.30;;;;;;;14.54;100.00;94842.97;10529796;28;20082;-71
2021/09/14 00:54:02;;;;;;;9.23;5.70;;;;;;;14.43;100.00;94828.81;10512050;28;20023;-71
2021/09/14 00:59:02;;;;;;;11.00;6.27;;;;;;;14.42;100.00;94838.00;10529295;28;20051;-71
2021/09/14 01:04:03;;;;;;;9.37;6.27;;;;;;;14.47;100.00;94842.53;10529940;28;20657;-70
2021/09/14 01:09:04;;;;;;;7.93;6.38;;;;;;;14.46;100.00;94841.72;10529556;28;20032;-71
2021/09/14 01:14:07;;;;;;;12.75;6.15;;;;;;;14.40;100.00;94844.81;10529361;28;20460;-70
2021/09/14 01:19:09;;;;;;;8.57;6.25;;;;;;;14.36;100.00;94844.59;10529380;28;20028;-71
2021/09/14 01:24:10;;;;;;;9.90;6.30;;;;;;;14.23;100.00;94846.13;10529322;28;20028;-71
2021/09/14 01:30:10;;;;;;;9.77;6.25;;;;;;;14.14;100.00;94848.69;10528969;28;20032;-70
2021/09/14 01:34:32;;;;;;;9.85;5.88;;;;;;;13.81;100.00;94847.81;10529148;28;20024;-70
2021/09/14 01:39:33;;;;;;;10.37;5.97;;;;;;;13.69;100.00;94845.53;10530208;28;20039;-71
2021/09/14 01:44:33;;;;;;;12.88;8.77;;;;;;;13.49;100.00;94843.88;10518271;28;20652;-70
2021/09/14 01:49:33;;;;;;;11.57;7.57;;;;;;;13.38;100.00;94840.53;10536447;28;20035;-70
2021/09/14 01:54:34;;;;;;;13.87;8.03;;;;;;;13.36;100.00;94839.19;10536476;28;20020;-71
2021/09/14 01:59:35;;;;;;;18.57;7.77;;;;;;;13.18;100.00;94852.31;10535717;28;20046;-70
2021/09/14 03:02:48;;;;;;;;;;;;;;;13.23;100.00;94864.94;10576263;28;20063;-71
2021/09/14 03:07:49;;;;;;;11.80;7.15;;;;;;;13.15;100.00;94864.47;10575450;28;19907;-71
2021/09/14 03:12:49;;;;;;;11.83;7.50;;;;;;;13.11;100.00;94874.22;10575894;28;20020;-71
2021/09/14 03:17:49;;;;;;;11.55;7.00;;;;;;;12.92;100.00;94867.94;10575593;28;20277;-71
2021/09/14 03:22:50;;;;;;;10.47;6.77;;;;;;;12.91;100.00;94874.44;10574956;28;20155;-70
2021/09/14 03:27:50;;;;;;;12.52;6.60;;;;;;;12.78;100.00;94870.50;10556773;28;20123;-71
2021/09/14 03:32:51;;;;;;;12.23;7.72;;;;;;;12.78;100.00;94876.72;10574985;28;20035;-71
2021/09/14 03:37:51;;;;;;;11.97;7.07;;;;;;;12.61;100.00;94879.00;10574662;28;20023;-71
2021/09/14 03:42:51;;;;;;;15.63;7.70;;;;;;;12.54;100.00;94884.72;10574040;28;20039;-71
2021/09/14 03:47:52;;;;;;;12.53;7.60;;;;;;;12.57;100.00;94884.19;10574380;28;20028;-70
2021/09/14 03:52:52;;;;;;;16.53;8.63;;;;;;;12.53;100.00;94891.22;10574300;28;20039;-71
2021/09/14 03:57:52;;;;;;;9.80;6.17;;;;;;;12.47;100.00;94898.53;10573479;28;20795;-69
2021/09/14 04:03:01;;;;;;;12.80;7.30;;;;;;;12.43;100.00;94894.78;10572890;28;20301;-70
2021/09/14 04:13:09;;;;;;;13.13;7.32;;;;;;;12.48;100.00;94905.50;10546713;28;20028;-70
2021/09/14 04:18:10;;;;;;;12.02;7.82;;;;;;;12.51;100.00;94916.84;10529464;28;20058;-70
2021/09/14 04:23:10;;;;;;;16.73;5.70;;;;;;;12.42;100.00;94927.38;10557307;28;20024;-70
2021/09/14 04:28:11;;;;;;;13.00;6.53;;;;;;;12.38;100.00;94927.16;10543151;28;20028;-70
2021/09/14 04:33:11;;;;;;;24.60;7.07;;;;;;;12.33;100.00;94929.88;10530542;28;20274;-69
2021/09/14 04:38:12;;;;;;;14.73;7.80;;;;;;;12.27;100.00;94922.94;10530289;28;20324;-69
2021/09/14 04:43:12;;;;;;;20.80;7.87;;;;;;;12.34;100.00;94931.50;10528705;28;20467;-70
2021/09/14 04:48:13;;;;;;;11.67;6.97;;;;;;;12.37;100.00;94930.13;10519227;28;20035;-70
2021/09/14 04:53:13;;;;;;;18.73;7.40;;;;;;;12.48;100.00;94932.47;10570437;28;20317;-71
2021/09/14 04:58:13;;;;;;;11.07;7.07;;;;;;;12.47;100.00;94936.28;10571723;28;20044;-69
2021/09/14 05:03:14;;;;;;;13.88;7.65;;;;;;;12.34;100.00;94941.47;10573460;28;20801;-70
2021/09/14 05:08:14;;;;;;;16.07;8.27;;;;;;;12.38;100.00;94937.94;10572951;28;20027;-70
2021/09/14 05:13:15;;;;;;;13.13;7.90;;;;;;;12.47;100.00;94946.22;10570370;28;20300;-71
2021/09/14 05:18:16;;;;;;;11.73;7.97;;;;;;;12.71;100.00;94945.53;10577522;28;20277;-71
2021/09/14 05:23:24;;;;;;;12.75;7.72;;;;;;;13.07;100.00;94950.66;10605635;27;20087;-71
2021/09/14 05:28:25;;;;;;;17.47;8.17;;;;;;;13.42;100.00;94949.53;10634829;27;20031;-71
2021/09/14 05:33:25;;;;;;;16.42;9.27;;;;;;;13.92;100.00;94951.16;10621952;27;20015;-70
2021/09/14 05:38:27;;;;;;;17.63;8.77;;;;;;;14.51;100.00;94947.13;10618989;27;20034;-70
2021/09/14 05:43:28;;;;;;;21.27;7.47;;;;;;;14.99;100.00;94956.19;10582429;27;20127;-72
2021/09/14 05:48:29;;;;;;;11.93;7.05;;;;;;;15.44;100.00;94958.41;10579787;28;20042;-72
2021/09/14 05:53:29;;;;;;;17.17;8.30;;;;;;;15.79;100.00;94965.09;10579579;28;20371;-72
2021/09/14 05:58:31;;;;;;;11.23;7.20;;;;;;;16.18;100.00;94974.63;10562574;28;20405;-72
2021/09/14 06:03:33;;;;;;;10.48;6.82;;;;;;;16.46;100.00;94969.16;10565746;28;20076;-72
2021/09/14 06:08:34;;;;;;;8.65;6.28;;;;;;;16.47;100.00;94976.19;10579382;28;20047;-72
2021/09/14 06:13:34;;;;;;;13.02;7.03;;;;;;;16.65;100.00;94977.16;10578942;28;20051;-73
2021/09/14 06:18:35;;;;;;;11.43;7.50;;;;;;;16.68;100.00;94973.03;10579199;27;20093;-73
2021/09/14 06:23:35;;;;;;;10.80;7.53;;;;;;;16.90;100.00;94972.28;10600661;27;20311;-72
2021/09/14 06:28:36;;;;;;;15.93;7.68;;;;;;;17.20;100.00;94969.94;10620873;27;20273;-73
2021/09/14 06:33:36;;;;;;;14.82;6.97;;;;;;;17.45;96.91;94959.56;10570852;27;20430;-73
2021/09/14 06:38:37;;;;;;;11.37;6.90;;;;;;;17.88;92.00;94967.91;10536531;28;20032;-73
2021/09/14 06:43:38;;;;;;;15.77;7.80;;;;;;;18.26;88.22;94966.63;10559459;27;20047;-73
2021/09/14 06:48:38;;;;;;;14.60;7.70;;;;;;;18.85;88.56;94968.13;10603713;27;20031;-73
2021/09/14 06:53:38;;;;;;;18.53;7.83;;;;;;;19.55;84.20;94968.91;10566896;27;20115;-73
2021/09/14 06:58:39;;;;;;;15.80;7.93;;;;;;;20.23;78.28;94970.91;10534585;28;20385;-73
2021/09/14 07:03:39;;;;;;;17.03;7.13;;;;;;;20.96;69.14;94972.56;10516336;28;20036;-73
2021/09/14 07:08:39;;;;;;;17.37;7.50;;;;;;;22.33;60.80;94974.56;10534496;28;20027;-73
2021/09/14 07:13:40;;;;;;;11.70;6.57;;;;;;;25.25;45.82;94964.91;10557458;27;20439;-73
2021/09/14 07:18:41;;;;;;;10.45;5.78;;;;;;;27.79;40.70;94958.22;10580382;27;20281;-72
2021/09/14 07:23:43;;;;;;;14.07;6.18;;;;;;;29.28;36.72;94968.50;10610264;27;20027;-72
2021/09/14 07:28:43;;;;;;;16.83;5.93;;;;;;;30.18;34.06;94965.97;10618652;27;20041;-72
2021/09/14 07:33:43;;;;;;;16.90;6.20;;;;;;;31.24;33.50;94968.28;10618308;27;20102;-72
2021/09/14 07:38:44;;;;;;;15.40;6.57;;;;;;;31.90;32.10;94963.25;10557893;27;20490;-72
2021/09/14 07:43:44;;;;;;;22.40;6.05;;;;;;;33.30;29.25;94967.69;10533164;28;20028;-72
2021/09/14 07:48:45;;;;;;;15.93;6.47;;;;;;;33.40;29.87;94952.03;10533363;28;20024;-71
2021/09/14 07:53:45;;;;;;;20.97;6.70;;;;;;;34.11;29.19;94959.91;10529239;27;20023;-72
2021/09/14 07:58:46;;;;;;;20.15;7.05;;;;;;;34.63;27.98;94956.69;10603548;27;20072;-72
2021/09/14 08:03:46;;;;;;;13.83;7.07;;;;;;;34.87;27.91;94953.91;10616614;27;20475;-72
2021/09/14 08:08:46;;;;;;;25.63;7.33;;;;;;;34.63;27.68;94948.31;10615541;27;20458;-72
2021/09/14 08:13:49;;;;;;;12.33;6.60;;;;;;;34.69;26.34;94952.22;10615697;27;20015;-71
2021/09/14 08:18:50;;;;;;;24.95;7.18;;;;;;;34.06;27.59;94944.41;10615835;27;20019;-71
2021/09/14 08:23:51;;;;;;;25.27;6.70;;;;;;;32.03;30.41;94944.91;10557998;27;20027;-71
2021/09/14 08:28:52;;;;;;;28.15;9.00;;;;;;;30.17;32.04;94936.69;10543762;27;20401;-71
2021/09/14 08:33:53;;;;;;;13.20;6.43;;;;;;;29.62;32.68;94935.78;10608568;27;20033;-71
2021/09/14 08:38:53;;;;;;;13.60;6.17;;;;;;;30.83;31.77;94930.69;10615169;27;20508;-71
2021/09/14 08:43:54;;;;;;;13.20;4.85;;;;;;;32.98;28.91;94912.31;10604230;27;20023;-71
2021/09/14 08:48:57;;;;;;;16.25;5.15;;;;;;;32.57;29.17;94910.31;10513938;28;20467;-71
2021/09/14 08:53:57;;;;;;;12.57;5.72;;;;;;;31.46;30.08;94919.00;10568034;28;20102;-71
2021/09/14 08:59:00;;;;;;;13.60;5.10;;;;;;;29.53;32.66;94918.75;10572253;28;20134;-72
2021/09/14 09:04:04;;;;;;;10.38;4.75;;;;;;;29.83;31.99;94901.81;10566628;28;20060;-71
2021/09/14 09:09:18;;;;;;;10.10;4.82;;;;;;;32.43;29.43;94895.38;10530044;28;20028;-72
2021/09/14 09:14:18;;;;;;;6.35;3.75;;;;;;;34.68;25.69;94902.38;10547271;28;20032;-72
2021/09/14 09:19:25;;;;;;;5.37;2.90;;;;;;;33.12;26.17;94889.09;10530151;28;20097;-71
2021/09/14 09:24:26;;;;;;;6.07;3.65;;;;;;;31.56;29.65;94892.34;10563142;28;20084;-72
2021/09/14 09:29:28;;;;;;;9.75;3.80;;;;;;;30.96;30.33;94885.88;10572548;28;20381;-72
2021/09/14 09:34:28;;;;;;;8.25;3.35;;;;;;;30.69;28.38;94883.56;10545149;28;20561;-71
2021/09/14 09:39:35;;;;;;;11.65;3.53;;;;;;;33.55;27.30;94874.63;10581398;28;20019;-71
2021/09/14 09:44:36;;;;;;;6.57;2.80;;;;;;;37.23;23.01;94864.19;10593982;28;20031;-71
2021/09/14 09:49:37;;;;;;;6.45;3.05;;;;;;;39.21;20.64;94862.66;10611933;28;20054;-71
2021/09/14 09:54:37;;;;;;;10.80;2.87;;;;;;;40.85;20.35;94856.56;10612168;28;20102;-71
2021/09/14 09:59:38;;;;;;;4.70;2.67;;;;;;;40.75;18.60;94849.34;10612156;27;20047;-71
2021/09/14 10:04:46;;;;;;;4.20;2.40;;;;;;;41.92;18.06;94850.13;10619273;27;20110;-71
2021/09/14 10:09:52;;;;;;;3.65;2.20;;;;;;;43.30;17.14;94832.69;10620160;27;20027;-71
2021/09/14 10:14:57;;;;;;;5.90;2.30;;;;;;;41.72;17.62;94824.47;10619583;27;20493;-71
2021/09/14 10:20:11;;;;;;;3.38;2.35;;;;;;;38.84;19.46;94826.63;10619149;27;20027;-71
2021/09/14 10:25:20;;;;;;;5.60;2.67;;;;;;;39.77;19.30;94827.19;10594101;27;20088;-71
2021/09/14 10:30:23;;;;;;;5.55;2.47;;;;;;;42.13;17.94;94824.91;10534869;28;20081;-71
2021/09/14 10:35:35;;;;;;;6.30;2.72;;;;;;;41.62;18.02;94818.84;10542190;27;20696;-71
2021/09/14 10:40:41;;;;;;;4.50;2.17;;;;;;;40.20;18.12;94816.25;10552967;28;20111;-71
2021/09/14 10:45:43;;;;;;;4.20;2.30;;;;;;;38.32;20.36;94816.78;10576770;27;20031;-71
2021/09/14 10:50:43;;;;;;;7.70;3.10;;;;;;;36.61;21.42;94814.66;10617247;27;20129;-71
2021/09/14 10:55:50;;;;;;;4.90;2.50;;;;;;;36.03;22.09;94804.94;10546186;28;20702;-71
2021/09/14 11:00:52;;;;;;;7.47;2.53;;;;;;;39.29;19.76;94804.91;10533084;28;20051;-71
2021/09/14 11:05:55;;;;;;;9.75;2.63;;;;;;;40.62;18.19;94799.56;10532202;28;20214;-71
2021/09/14 11:11:01;;;;;;;10.05;2.30;;;;;;;41.86;17.29;94806.84;10552811;27;20072;-71
2021/09/14 11:16:05;;;;;;;6.13;2.22;;;;;;;42.17;16.53;94794.44;10577497;27;20143;-71
2021/09/14 11:21:11;;;;;;;3.88;2.15;;;;;;;40.13;18.12;94789.94;10606912;27;20023;-72
2021/09/14 11:26:13;;;;;;;7.05;2.83;;;;;;;36.41;21.45;94795.22;10579805;27;20038;-71
2021/09/14 11:31:15;;;;;;;15.80;4.85;;;;;;;31.70;25.16;94799.81;10605870;27;20178;-71
2021/09/14 11:36:15;;;;;;;9.02;4.18;;;;;;;29.94;28.15;94795.75;10608091;27;20019;-71
2021/09/14 11:41:16;;;;;;;13.25;4.05;;;;;;;29.40;29.81;94799.28;10562654;27;20547;-71
2021/09/14 11:46:19;;;;;;;11.23;3.70;;;;;;;29.36;28.03;94801.25;10569086;28;20474;-71
2021/09/14 11:51:20;;;;;;;9.38;3.63;;;;;;;29.03;29.82;94794.81;10573250;28;20080;-71
2021/09/14 11:56:26;;;;;;;6.90;3.60;;;;;;;28.40;27.97;94794.16;10592893;27;20076;-70
2021/09/14 12:01:31;;;;;;;5.10;3.45;;;;;;;27.94;28.60;94789.88;10616252;27;20134;-70
2021/09/14 12:06:33;;;;;;;6.43;3.40;;;;;;;27.78;29.29;94787.38;10614975;27;20494;-71
2021/09/14 12:11:35;;;;;;;5.35;3.60;;;;;;;27.61;29.01;94780.56;10611776;27;20408;-70
2021/09/14 12:16:41;;;;;;;15.38;7.00;;;;;;;27.58;30.21;94778.56;10549427;27;20054;-70
2021/09/14 12:21:41;;;;;;;7.53;3.63;;;;;;;27.59;29.08;94780.16;10511378;28;20035;-70
2021/09/14 12:26:42;;;;;;;7.23;3.90;;;;;;;27.67;29.26;94776.28;10529161;28;20024;-70
2021/09/14 12:31:43;;;;;;;4.97;3.40;;;;;;;27.71;27.85;94777.06;10529314;28;20726;-71
2021/09/14 12:36:44;;;;;;;6.00;3.23;;;;;;;27.76;28.24;94764.91;10528990;28;20107;-71
2021/09/14 12:41:45;;;;;;;7.50;3.33;;;;;;;27.76;27.46;94760.16;10529474;28;20278;-71
2021/09/14 12:46:46;;;;;;;3.63;2.63;;;;;;;27.51;25.91;94753.66;10528757;28;20117;-71
2021/09/14 12:51:47;;;;;;;5.43;3.22;;;;;;;27.19;27.31;94752.19;10528952;28;20357;-70
2021/09/14 12:56:47;;;;;;;3.53;2.60;;;;;;;27.00;27.09;94755.13;10528745;28;20028;-70
2021/09/14 13:01:47;;;;;;;5.00;2.40;;;;;;;26.96;26.39;94746.84;10528127;28;20096;-70
2021/09/14 13:06:50;;;;;;;5.30;2.53;;;;;;;26.87;27.10;94740.84;10528344;28;20036;-71
2021/09/14 13:11:50;;;;;;;2.83;2.17;;;;;;;26.64;29.06;94740.94;10528652;28;20032;-71
2021/09/14 13:16:51;;;;;;;4.18;2.88;;;;;;;26.54;26.97;94734.94;10532939;28;20379;-71
2021/09/14 13:21:52;;;;;;;4.10;2.97;;;;;;;26.57;27.02;94736.16;10566932;28;20027;-71
2021/09/14 13:26:53;;;;;;;5.18;3.03;;;;;;;26.68;27.28;94728.00;10594488;28;20082;-71
2021/09/14 13:31:54;;;;;;;4.10;2.65;;;;;;;26.73;26.43;94720.19;10612176;28;20075;-71
2021/09/14 13:36:54;;;;;;;4.60;2.70;;;;;;;26.56;26.46;94718.81;10616492;27;20027;-71
2021/09/14 13:41:57;;;;;;;4.97;2.60;;;;;;;26.40;27.58;94721.78;10620013;27;20501;-71
2021/09/14 13:47:06;;;;;;;6.63;2.67;;;;;;;26.35;29.60;94721.34;10619951;27;20470;-71
2021/09/14 13:52:06;;;;;;;4.70;2.72;;;;;;;26.15;28.03;94720.66;10620480;27;20027;-71
2021/09/14 13:57:07;;;;;;;3.23;2.37;;;;;;;25.93;27.49;94721.16;10569035;27;20024;-71
2021/09/14 14:02:07;;;;;;;6.57;2.10;;;;;;;25.86;27.50;94712.03;10549214;28;20421;-71
2021/09/14 14:07:07;;;;;;;5.17;1.80;;;;;;;25.88;26.74;94707.69;10605619;27;20114;-70
2021/09/14 14:12:08;;;;;;;3.40;1.97;;;;;;;25.85;26.50;94711.19;10580741;27;20043;-71
2021/09/14 14:17:08;;;;;;;8.23;2.10;;;;;;;25.79;27.45;94714.66;10574910;28;20034;-71
2021/09/14 14:22:08;;;;;;;2.80;2.23;;;;;;;25.69;27.27;94710.56;10571577;28;20748;-71
2021/09/14 14:27:09;;;;;;;4.67;2.50;;;;;;;25.64;27.80;94706.19;10574051;28;20288;-71
2021/09/14 14:32:09;;;;;;;5.22;2.40;;;;;;;25.56;27.18;94708.06;10575007;28;20275;-71
2021/09/14 14:37:10;;;;;;;3.20;2.20;;;;;;;25.51;26.79;94711.13;10541135;28;20031;-71
2021/09/14 14:42:10;;;;;;;3.27;2.17;;;;;;;25.31;27.13;94715.09;10532693;28;20038;-71
2021/09/14 14:47:10;;;;;;;5.90;2.10;;;;;;;25.36;27.33;94712.84;10531899;28;20294;-71
2021/09/14 14:52:11;;;;;;;3.80;1.93;;;;;;;25.31;27.80;94704.88;10532017;28;20277;-70
2021/09/14 14:57:11;;;;;;;4.53;2.30;;;;;;;25.35;27.94;94711.25;10531490;28;20266;-71
2021/09/14 15:02:11;;;;;;;5.83;2.20;;;;;;;25.34;28.49;94722.63;10531352;28;20479;-71
2021/09/14 15:07:12;;;;;;;4.77;2.43;;;;;;;25.23;27.80;94712.22;10531070;28;20051;-71
2021/09/14 15:12:12;;;;;;;6.00;2.63;;;;;;;25.20;28.15;94714.91;10530787;28;20399;-71
2021/09/14 15:17:13;;;;;;;6.30;2.80;;;;;;;25.15;28.61;94724.25;10507832;28;20302;-71
2021/09/14 15:22:14;;;;;;;5.75;2.45;;;;;;;25.10;28.82;94721.03;10529568;28;20479;-70
2021/09/14 15:27:14;;;;;;;5.50;2.78;;;;;;;25.01;28.87;94732.28;10528281;28;20032;-71
2021/09/14 15:32:15;;;;;;;6.07;2.60;;;;;;;24.88;32.23;94739.88;10530608;28;20117;-70
2021/09/14 15:37:15;;;;;;;11.37;4.37;;;;;;;24.00;35.77;94744.81;10530306;28;20035;-71
2021/09/14 15:42:16;;;;;;;6.50;3.75;;;;;;;24.00;33.78;94736.59;10530362;28;20779;-70
2021/09/14 15:47:16;;;;;;;8.90;3.27;;;;;;;23.97;34.86;94740.03;10530018;28;20035;-71
2021/09/14 15:52:17;;;;;;;4.17;2.77;;;;;;;23.89;33.51;94735.56;10544222;27;20941;-71
2021/09/14 15:57:17;;;;;;;4.37;3.03;;;;;;;23.65;33.32;94745.59;10528514;28;20390;-71
2021/09/14 16:02:17;;;;;;;7.90;3.97;;;;;;;23.64;34.96;94746.72;10528936;28;20031;-71
2021/09/14 16:07:18;;;;;;;7.03;3.43;;;;;;;23.50;35.98;94744.44;10528762;28;20024;-70
2021/09/14 16:12:18;;;;;;;8.80;3.27;;;;;;;23.27;34.98;94746.25;10529273;28;20027;-70
2021/09/14 16:17:18;;;;;;;4.87;2.90;;;;;;;23.23;34.31;94746.13;10529157;28;20481;-70
2021/09/14 16:22:19;;;;;;;9.20;3.57;;;;;;;23.15;35.25;94753.41;10565672;27;20019;-70
2021/09/14 16:27:21;;;;;;;12.23;3.97;;;;;;;23.04;39.46;94750.34;10568525;27;20042;-72
2021/09/14 16:32:22;;;;;;;12.65;4.50;;;;;;;22.77;38.81;94759.44;10524536;27;20031;-71
2021/09/14 16:37:23;;;;;;;10.45;4.43;;;;;;;22.56;40.78;94765.13;10541525;27;20418;-71
2021/09/14 16:42:23;;;;;;;9.77;3.33;;;;;;;22.37;37.28;94772.06;10589296;27;20407;-70
2021/09/14 16:47:24;;;;;;;13.57;4.78;;;;;;;22.14;39.21;94778.00;10557332;28;20387;-71
2021/09/14 16:52:24;;;;;;;14.95;5.05;;;;;;;21.90;36.64;94789.00;10526618;28;20032;-70
2021/09/14 16:57:24;;;;;;;13.00;5.03;;;;;;;21.82;37.40;94788.81;10525227;28;20056;-70
2021/09/14 17:02:25;;;;;;;14.70;5.43;;;;;;;21.78;38.71;94803.50;10558836;28;20076;-70
2021/09/14 17:07:25;;;;;;;14.73;4.67;;;;;;;21.61;39.61;94810.00;10569701;28;20293;-70
2021/09/14 17:12:26;;;;;;;6.45;2.97;;;;;;;21.23;36.93;94817.34;10557566;27;20285;-70
2021/09/14 17:17:26;;;;;;;6.50;2.90;;;;;;;21.00;37.31;94819.66;10563948;28;20024;-70
2021/09/14 17:22:27;;;;;;;7.97;4.63;;;;;;;20.86;37.66;94828.19;10547304;28;20265;-70
2021/09/14 17:27:27;;;;;;;11.32;3.88;;;;;;;20.78;37.97;94823.63;10575484;27;20032;-70
2021/09/14 17:32:28;;;;;;;14.40;4.47;;;;;;;20.73;37.85;94829.28;10620869;27;20019;-70
2021/09/14 17:37:28;;;;;;;16.10;4.57;;;;;;;20.76;37.60;94845.00;10620036;27;20020;-70
2021/09/14 17:42:30;;;;;;;12.32;6.25;;;;;;;20.56;38.05;94844.66;10574800;27;20536;-70
2021/09/14 17:47:31;;;;;;;10.85;4.50;;;;;;;20.46;38.51;94847.78;10574626;28;20034;-70
2021/09/14 17:52:31;;;;;;;10.02;4.22;;;;;;;20.37;38.39;94856.03;10573797;28;20401;-70
2021/09/14 17:57:32;;;;;;;9.10;3.38;;;;;;;20.21;38.38;94877.66;10573288;28;20040;-70
2021/09/14 18:02:32;;;;;;;7.90;4.63;;;;;;;20.22;38.54;94871.09;10571704;28;20103;-70
2021/09/14 18:07:33;;;;;;;12.80;4.22;;;;;;;20.14;39.49;94880.13;10555204;28;20065;-70
2021/09/14 18:12:34;;;;;;;6.40;4.13;;;;;;;20.03;39.17;94881.63;10572543;28;20023;-70
2021/09/14 18:17:34;;;;;;;8.80;3.97;;;;;;;19.95;39.62;94888.72;10573641;28;20391;-70
2021/09/14 18:22:35;;;;;;;9.25;3.80;;;;;;;19.83;39.91;94884.00;10572009;28;20555;-70
2021/09/14 18:27:36;;;;;;;8.63;3.83;;;;;;;19.67;40.32;94888.34;10572398;28;20062;-70
2021/09/14 18:32:37;;;;;;;6.68;3.50;;;;;;;19.63;41.29;94899.09;10573579;28;20514;-70
2021/09/14 18:37:38;;;;;;;7.53;3.83;;;;;;;19.54;41.86;94893.69;10574481;28;20204;-70
2021/09/14 18:42:39;;;;;;;10.68;4.95;;;;;;;19.54;42.41;94898.34;10574588;28;20735;-70
2021/09/14 18:47:40;;;;;;;23.92;4.85;;;;;;;19.49;42.90;94901.25;10573399;28;20032;-70
2021/09/14 18:52:44;;;;;;;11.20;4.95;;;;;;;19.42;43.27;94901.75;10569511;28;20085;-69
2021/09/14 18:57:45;;;;;;;9.90;4.50;;;;;;;19.28;43.23;94897.31;10575695;27;20046;-70
2021/09/14 19:02:45;;;;;;;18.65;5.55;;;;;;;19.17;44.32;94909.66;10561725;27;20030;-70
2021/09/14 19:07:46;;;;;;;12.73;4.17;;;;;;;19.17;44.14;94909.66;10542796;27;20067;-70
2021/09/14 19:12:46;;;;;;;9.93;4.80;;;;;;;19.02;44.96;94910.97;10572220;27;20039;-70
2021/09/14 19:17:46;;;;;;;9.53;5.07;;;;;;;18.93;45.61;94910.97;10616176;27;20034;-71
2021/09/14 19:22:47;;;;;;;11.50;4.03;;;;;;;18.90;46.05;94908.91;10613413;27;20367;-70
2021/09/14 19:27:47;;;;;;;7.77;4.40;;;;;;;18.80;46.98;94914.66;10609044;27;20280;-70
2021/09/14 19:32:48;;;;;;;13.82;4.25;;;;;;;18.78;48.32;94916.88;10590500;27;20277;-69
2021/09/14 19:37:48;;;;;;;13.10;4.75;;;;;;;18.65;51.01;94915.94;10573023;28;20027;-69
2021/09/14 19:42:48;;;;;;;9.17;5.60;;;;;;;18.57;52.07;94922.97;10572899;28;20057;-70
2021/09/14 19:47:50;;;;;;;9.07;4.27;;;;;;;18.57;51.86;94922.16;10571649;27;20285;-70
2021/09/14 19:52:50;;;;;;;9.70;4.28;;;;;;;18.56;51.98;94928.75;10572647;28;20051;-70
2021/09/14 19:57:50;;;;;;;7.77;5.07;;;;;;;18.51;52.02;94918.00;10571779;28;20919;-70
2021/09/14 20:02:51;;;;;;;7.07;4.10;;;;;;;18.53;52.60;94927.47;10570911;28;20112;-70
2021/09/14 20:07:51;;;;;;;9.90;4.25;;;;;;;18.52;59.58;94930.50;10569930;28;20289;-70
2021/09/14 20:12:52;;;;;;;10.95;4.45;;;;;;;18.42;63.17;94934.34;10534590;28;20028;-70
2021/09/14 20:17:52;;;;;;;9.17;5.47;;;;;;;18.15;62.81;94943.56;10557045;28;20027;-70
2021/09/14 20:22:53;;;;;;;12.63;4.30;;;;;;;18.13;67.52;94946.59;10568230;28;20280;-70
2021/09/14 20:27:53;;;;;;;10.10;4.80;;;;;;;17.90;69.15;94943.13;10543706;28;20168;-69
2021/09/14 20:32:54;;;;;;;11.35;4.78;;;;;;;17.81;68.46;94948.53;10526714;28;20036;-70
2021/09/14 20:37:55;;;;;;;20.80;5.68;;;;;;;17.69;68.05;94959.19;10527274;28;20024;-70
2021/09/14 20:42:55;;;;;;;11.83;6.60;;;;;;;17.74;69.58;94959.06;10527646;28;20449;-70
2021/09/14 20:47:58;;;;;;;7.40;4.57;;;;;;;17.73;68.17;94963.69;10528114;28;20331;-70
2021/09/14 20:52:58;;;;;;;9.02;5.28;;;;;;;17.73;71.88;94969.13;10528626;28;20062;-70
2021/09/14 20:57:58;;;;;;;10.60;4.27;;;;;;;17.78;69.58;94957.31;10527952;28;20127;-70
2021/09/14 21:02:59;;;;;;;8.03;4.00;;;;;;;17.69;70.09;94959.19;10527802;28;20781;-70
2021/09/14 21:08:00;;;;;;;7.50;3.92;;;;;;;17.54;71.14;94960.38;10528150;28;20111;-70
2021/09/14 21:13:00;;;;;;;10.70;4.63;;;;;;;17.55;72.75;94960.09;10527936;28;20437;-70
2021/09/14 21:18:00;;;;;;;7.00;4.57;;;;;;;17.64;75.70;94954.69;10528177;28;20514;-70
2021/09/14 21:23:01;;;;;;;8.03;4.47;;;;;;;17.65;75.57;94956.31;10527383;28;20032;-70
2021/09/14 21:28:01;;;;;;;11.82;4.22;;;;;;;17.58;72.08;94956.75;10527682;28;20059;-70
2021/09/14 21:33:02;;;;;;;6.82;3.50;;;;;;;17.49;72.60;94953.19;10527516;28;20077;-69
2021/09/14 21:38:02;;;;;;;4.50;3.35;;;;;;;17.44;72.60;94958.72;10527186;28;20623;-69
2021/09/14 21:43:03;;;;;;;5.68;3.85;;;;;;;17.30;73.65;94953.38;10527152;28;20028;-70
2021/09/14 21:48:04;;;;;;;9.77;4.18;;;;;;;17.16;75.14;94944.50;10527523;28;20035;-70
2021/09/14 21:53:04;;;;;;;6.28;3.67;;;;;;;17.06;75.82;94943.63;10527383;28;20028;-70
2021/09/14 21:58:04;;;;;;;5.60;3.93;;;;;;;17.11;75.92;94947.34;10530358;28;20047;-70
2021/09/14 22:03:06;;;;;;;6.10;3.97;;;;;;;17.06;76.81;94949.06;10535145;28;20040;-69
2021/09/14 22:08:07;;;;;;;9.00;4.60;;;;;;;16.96;78.80;94949.34;10534440;28;20106;-70
2021/09/14 22:13:07;;;;;;;6.83;4.00;;;;;;;16.95;80.71;94941.50;10534635;28;20024;-71
2021/09/14 22:18:08;;;;;;;11.83;3.63;;;;;;;16.99;82.69;94945.19;10555945;28;20278;-70
2021/09/14 22:23:08;;;;;;;7.13;3.88;;;;;;;16.98;81.16;94957.97;10575413;28;20285;-70
2021/09/14 22:28:09;;;;;;;8.83;3.93;;;;;;;16.74;83.16;94958.22;10574662;28;20106;-70
2021/09/14 22:33:09;;;;;;;5.07;4.25;;;;;;;16.61;84.76;94948.22;10575100;28;20340;-70
2021/09/14 22:38:10;;;;;;;6.40;4.20;;;;;;;16.49;87.18;94951.47;10575383;28;20095;-71
2021/09/14 22:43:10;;;;;;;10.03;5.07;;;;;;;16.39;89.68;94952.50;10573808;28;20289;-71
2021/09/14 22:48:11;;;;;;;9.13;4.83;;;;;;;16.20;91.71;94950.72;10575768;28;20648;-70
2021/09/14 22:53:11;;;;;;;10.13;5.00;;;;;;;16.10;92.69;94955.53;10578232;28;20277;-70
2021/09/14 22:58:12;;;;;;;7.93;5.07;;;;;;;16.08;93.60;94955.84;10577714;28;20043;-70
2021/09/14 23:03:12;;;;;;;9.93;4.77;;;;;;;16.15;96.11;94945.41;10578012;28;20130;-71
2021/09/14 23:08:12;;;;;;;6.13;3.53;;;;;;;16.22;93.78;94953.91;10577612;28;20035;-70
2021/09/14 23:13:13;;;;;;;6.50;4.10;;;;;;;16.17;90.63;94945.91;10577290;28;20027;-72
2021/09/14 23:18:13;;;;;;;7.77;4.50;;;;;;;16.15;89.19;94950.81;10577339;28;20028;-70
2021/09/14 23:23:14;;;;;;;5.63;4.20;;;;;;;15.99;90.58;94950.34;10576605;28;20289;-70
2021/09/14 23:28:14;;;;;;;11.53;4.70;;;;;;;16.04;90.57;94960.28;10576873;28;20027;-70
2021/09/14 23:33:14;;;;;;;7.93;4.40;;;;;;;15.84;94.33;94958.78;10576633;28;20034;-70
2021/09/14 23:38:15;;;;;;;7.30;4.28;;;;;;;15.81;95.75;94960.19;10576682;28;20035;-70
2021/09/14 23:43:15;;;;;;;7.77;4.87;;;;;;;15.75;95.54;94955.91;10576183;28;20129;-70
2021/09/14 23:48:15;;;;;;;8.50;4.47;;;;;;;15.82;97.47;94955.56;10575422;28;20425;-70
2021/09/14 23:53:16;;;;;;;5.37;4.27;;;;;;;15.84;98.69;94954.16;10571953;28;20273;-71
2021/09/14 23:58:16;;;;;;;10.33;4.17;;;;;;;15.84;100.00;94970.41;10571586;28;20839;-71
